メインページ
METAR-TAF:

METAR-TAF

空港 :

ルクセンブルク, ルクセンブルク

ルクセンブルク-フィンデル空港

緯度: 49-37N, 経度: 006-13E, 海抜: 376m

現時点の気象観測

当レポートは27分前の09:20(UTC)に作成
北東の風 19kt、北/北東からの間で変化する
気温 10°C
湿度 57%
気圧 1024 hPa
視程10km以上
1,500メートル以下は雲なし、積乱雲なし

METAR: ELLX 250920Z 05019KT 030V090 CAVOK 10/02 Q1024 TEMPO 05015G25KT

時間: 10:47 (09:47 UTC)

予報

当レポートは4時間47分前の05:00(UTC)に作成
予報は25日の 06時(UTC)から 26日の 12時(UTC)まで有効
東/北東の風 12kt
視程10km以上
1,500メートル以下は雲なし、積乱雲なし
25日の 12時(UTC)から 25日の 18時(UTC)まで一時的に
東/北東の風 15kt、最大25ktの突風を伴う

TAF: ELLX 250500Z 2506/2612 06012KT CAVOK TEMPO 2512/2518 06015G25KT

4,000以上の空港の気象観測と天気予報(METAR報とTAF報)

利用可能な観測所は地図上に黄色い丸と赤い丸で示す。

丸の上にカーソルを重ねると観測所名を参照できる。

次にクリックすると気象観測と天気予報を参照できる。

マップの切り替え:黒色「×」印の緑ボタンをクリックして拡大、「-」印の緑ボタンをクリックして縮小、緑色の三角印をクリックして隣りの地図に切り替え


METAR-TAF: